Time;durP1;ratioP1;P1;durP2;ratioP2;P2;SDS_P1;SDS_P2;PMS_P1;PMS_P2;Temp;Humidity;BMP_temperature;BMP_pressure;BME280_temperature;BME280_humidity;BME280_pressure;Samples;Min_cycle;Max_cycle;Signal;HPM_P1;HPM_P2
2022/06/06 00:00:04;;;;;;;16.30;12.25;;;;;;;11.89;100.00;99022.72;4794377;29;20387;-87
2022/06/06 00:02:31;;;;;;;19.75;13.00;;;;;;;11.63;100.00;99000.66;4792509;29;20031;-86
2022/06/06 00:05:00;;;;;;;20.60;14.18;;;;;;;11.82;100.00;99009.56;4821161;29;20549;-87
2022/06/06 00:07:26;;;;;;;17.73;12.52;;;;;;;11.77;100.00;99004.06;4792235;29;20034;-86
2022/06/06 00:09:57;;;;;;;17.15;12.55;;;;;;;11.81;100.00;99001.84;4796509;29;20532;-85
2022/06/06 00:12:24;;;;;;;12.75;10.57;;;;;;;11.81;100.00;98997.41;4807713;29;20031;-85
2022/06/06 00:15:16;;;;;;;15.23;11.45;;;;;;;11.78;100.00;98989.91;4808403;29;20034;-86
2022/06/06 00:17:44;;;;;;;14.70;10.57;;;;;;;11.67;100.00;99003.69;4792087;29;20049;-86
2022/06/06 00:20:16;;;;;;;14.23;11.13;;;;;;;11.48;100.00;98982.44;4790488;29;20490;-86
2022/06/06 00:22:43;;;;;;;13.98;10.98;;;;;;;11.73;100.00;98999.44;4793855;29;20549;-86
2022/06/06 00:25:20;;;;;;;16.23;11.60;;;;;;;11.78;100.00;98983.84;4793610;29;20409;-86
2022/06/06 00:27:57;;;;;;;16.35;10.77;;;;;;;11.66;100.00;98973.94;4791066;29;20134;-86
2022/06/06 00:30:26;;;;;;;15.00;11.45;;;;;;;11.78;100.00;98982.03;4790992;29;20486;-87
2022/06/06 00:35:42;;;;;;;17.42;12.18;;;;;;;11.67;100.00;98990.53;4806527;29;20491;-84
2022/06/06 00:38:09;;;;;;;15.13;11.77;;;;;;;11.52;100.00;98988.91;4821658;29;20096;-88
2022/06/06 00:40:37;;;;;;;18.17;12.45;;;;;;;11.71;100.00;98989.13;4805660;29;20035;-86
2022/06/06 00:43:03;;;;;;;20.60;14.02;;;;;;;11.50;100.00;98985.69;4791025;29;20035;-87
2022/06/06 00:45:40;;;;;;;18.30;13.35;;;;;;;11.55;100.00;98985.09;4806883;29;20494;-85
2022/06/06 00:48:21;;;;;;;20.90;14.50;;;;;;;11.55;100.00;98993.75;4805471;29;20054;-86
2022/06/06 00:51:09;;;;;;;22.20;14.63;;;;;;;11.52;100.00;98982.88;4790912;29;20047;-85
2022/06/06 00:53:58;;;;;;;20.67;14.68;;;;;;;11.66;100.00;98981.03;4805938;29;20117;-87
2022/06/06 00:59:43;;;;;;;20.92;13.73;;;;;;;11.51;100.00;98968.91;4791312;29;20044;-85
2022/06/06 01:02:14;;;;;;;20.83;13.88;;;;;;;11.61;100.00;98970.31;4807584;29;20114;-87
2022/06/06 01:04:45;;;;;;;18.17;12.32;;;;;;;11.42;100.00;98960.41;4808660;29;20034;-87
2022/06/06 01:11:17;;;;;;;23.52;13.07;;;;;;;11.11;100.00;98974.94;4812847;29;21184;-85
2022/06/06 01:14:07;;;;;;;18.30;12.80;;;;;;;11.23;100.00;98955.94;4823782;29;20030;-86
2022/06/06 01:17:06;;;;;;;19.42;12.25;;;;;;;11.25;100.00;98953.91;4809720;29;20049;-89
2022/06/06 01:24:00;;;;;;;16.38;12.55;;;;;;;11.53;100.00;98950.31;4805926;29;20038;-88
2022/06/06 01:27:19;;;;;;;21.40;13.00;;;;;;;11.50;100.00;98958.59;4806658;29;20042;-88
2022/06/06 01:34:05;;;;;;;23.73;14.60;;;;;;;11.55;100.00;98962.22;4822645;29;20077;-86
2022/06/06 01:37:12;;;;;;;24.50;16.40;;;;;;;11.47;100.00;98948.47;4784629;29;20054;-87
2022/06/06 01:39:49;;;;;;;23.98;15.23;;;;;;;11.25;100.00;98952.13;4768664;30;20062;-88
2022/06/06 01:42:32;;;;;;;21.55;15.10;;;;;;;11.34;100.00;98933.50;4744402;30;20392;-86
2022/06/06 01:45:38;;;;;;;20.63;14.68;;;;;;;11.14;100.00;98955.31;4754851;30;20047;-87
2022/06/06 01:48:20;;;;;;;21.88;14.75;;;;;;;11.05;100.00;98935.53;4753292;30;20428;-86
2022/06/06 01:50:49;;;;;;;21.75;14.35;;;;;;;10.99;100.00;98926.63;4783138;30;20100;-88
2022/06/06 01:53:18;;;;;;;25.20;16.25;;;;;;;11.22;100.00;98934.13;4755086;30;20063;-89
2022/06/06 01:55:46;;;;;;;23.70;14.98;;;;;;;11.19;100.00;98942.38;4769687;30;20439;-85
2022/06/06 01:58:18;;;;;;;22.55;14.63;;;;;;;11.20;100.00;98930.91;4784623;30;20062;-86
2022/06/06 02:00:43;;;;;;;21.65;15.63;;;;;;;11.05;100.00;98930.28;4752999;30;20051;-87
2022/06/06 02:03:09;;;;;;;20.92;14.95;;;;;;;11.22;100.00;98936.75;4758037;29;20047;-85
2022/06/06 02:05:36;;;;;;;25.65;15.15;;;;;;;11.22;100.00;98922.81;4805111;29;20030;-88
2022/06/06 02:08:02;;;;;;;20.77;14.77;;;;;;;10.91;100.00;98925.00;4806425;29;20058;-86
2022/06/06 02:10:28;;;;;;;19.02;14.13;;;;;;;11.09;100.00;98934.09;4791407;29;20074;-86
2022/06/06 02:12:56;;;;;;;21.33;14.38;;;;;;;11.09;100.00;98920.97;4809973;29;20078;-88
2022/06/06 02:15:23;;;;;;;19.30;13.55;;;;;;;11.04;100.00;98924.19;4794603;29;20041;-86
2022/06/06 02:17:50;;;;;;;21.13;14.63;;;;;;;11.24;100.00;98918.97;4808684;29;20508;-88
2022/06/06 02:20:20;;;;;;;21.10;15.48;;;;;;;11.17;100.00;98906.84;4809974;29;20402;-86
2022/06/06 02:22:48;;;;;;;21.55;14.75;;;;;;;11.15;100.00;98917.53;4793145;29;20045;-86
2022/06/06 02:25:14;;;;;;;20.73;14.27;;;;;;;11.16;100.00;98913.91;4795339;29;20039;-87
2022/06/06 02:27:50;;;;;;;18.10;13.68;;;;;;;10.98;100.00;98912.66;4795036;29;20030;-87
2022/06/06 02:30:52;;;;;;;19.23;12.57;;;;;;;11.10;100.00;98906.84;4810399;29;20486;-88
2022/06/06 02:33:21;;;;;;;20.23;13.27;;;;;;;11.17;100.00;98897.13;4808050;29;20548;-89
2022/06/06 02:35:48;;;;;;;17.42;12.98;;;;;;;11.17;100.00;98898.97;4795824;29;20068;-86
2022/06/06 02:38:14;;;;;;;19.05;13.68;;;;;;;11.20;100.00;98907.25;4795716;29;20042;-85
2022/06/06 02:40:41;;;;;;;20.00;12.63;;;;;;;11.24;100.00;98921.59;4827156;29;20088;-86
2022/06/06 02:43:08;;;;;;;17.98;12.65;;;;;;;11.12;100.00;98910.06;4807451;29;20043;-87
2022/06/06 02:45:34;;;;;;;18.85;12.32;;;;;;;11.18;100.00;98908.47;4810575;29;20045;-85
2022/06/06 02:48:00;;;;;;;19.00;11.60;;;;;;;10.97;100.00;98903.16;4795627;29;20529;-84
2022/06/06 02:50:31;;;;;;;18.00;11.55;;;;;;;11.06;100.00;98918.75;4826901;29;20030;-87
2022/06/06 02:52:59;;;;;;;20.13;11.82;;;;;;;10.94;100.00;98914.06;4826269;29;20027;-85
2022/06/06 02:55:26;;;;;;;19.35;12.98;;;;;;;10.96;100.00;98901.56;4809406;29;20050;-86
2022/06/06 02:57:53;;;;;;;19.85;11.90;;;;;;;11.17;100.00;98918.13;4794561;29;20034;-86
2022/06/06 03:00:23;;;;;;;22.00;12.48;;;;;;;10.96;100.00;98898.94;4810124;29;20481;-87
2022/06/06 03:02:48;;;;;;;16.85;12.98;;;;;;;10.94;100.00;98903.56;4809767;29;20470;-86
2022/06/06 03:05:15;;;;;;;21.23;12.77;;;;;;;11.05;100.00;98915.31;4806971;29;20082;-87
2022/06/06 03:08:07;;;;;;;21.05;13.52;;;;;;;11.12;100.00;98917.94;4793990;29;20042;-86
2022/06/06 03:10:48;;;;;;;18.88;13.07;;;;;;;11.02;100.00;98914.91;4809747;29;20034;-86
2022/06/06 03:13:40;;;;;;;21.35;13.48;;;;;;;11.17;100.00;98907.63;4824893;29;20541;-86
2022/06/06 03:22:33;;;;;;;18.25;12.30;;;;;;;11.00;100.00;98913.31;4824864;29;20045;-86
2022/06/06 03:25:17;;;;;;;17.70;12.60;;;;;;;10.83;100.00;98902.34;4824045;29;20042;-87
2022/06/06 03:28:06;;;;;;;15.75;12.23;;;;;;;10.79;100.00;98905.56;4825666;29;20038;-85
2022/06/06 03:30:50;;;;;;;20.65;13.15;;;;;;;10.82;100.00;98916.50;4792458;29;20083;-86
2022/06/06 03:33:24;;;;;;;;;;;;;;;10.82;100.00;98910.44;4826213;29;20031;-85
2022/06/06 03:35:55;;;;;;;14.60;11.15;;;;;;;10.93;100.00;98901.97;4825666;29;19917;-84
2022/06/06 03:39:26;;;;;;;19.92;12.80;;;;;;;10.81;100.00;98908.81;4808231;29;20067;-87
2022/06/06 03:42:06;;;;;;;18.58;10.80;;;;;;;10.89;100.00;98910.44;4744023;30;20081;-87
2022/06/06 03:44:53;;;;;;;17.73;11.65;;;;;;;10.73;100.00;98901.13;4756943;30;20040;-85
2022/06/06 03:47:43;;;;;;;17.38;11.48;;;;;;;10.90;100.00;98910.25;4817214;29;20070;-84
2022/06/06 03:50:47;;;;;;;19.95;12.63;;;;;;;10.88;100.00;98908.81;4791799;29;20529;-87
2022/06/06 03:53:23;;;;;;;;;;;;;;;10.86;100.00;98912.44;4806618;29;20062;-87
2022/06/06 03:55:57;;;;;;;14.95;10.85;;;;;;;10.72;100.00;98910.81;4809028;29;19916;-85
2022/06/06 03:58:27;;;;;;;20.00;11.82;;;;;;;10.93;100.00;98901.16;4823215;29;20527;-87
2022/06/06 04:00:57;;;;;;;18.50;12.73;;;;;;;10.94;100.00;98919.34;4825382;29;20397;-85
2022/06/06 04:03:24;;;;;;;18.27;12.43;;;;;;;10.82;100.00;98910.44;4809595;29;20553;-86
2022/06/06 04:05:51;;;;;;;18.20;12.38;;;;;;;10.87;100.00;98918.53;4791183;29;20513;-84
2022/06/06 04:08:16;;;;;;;20.08;11.48;;;;;;;10.91;100.00;98909.22;4806019;29;20043;-87
2022/06/06 04:11:01;;;;;;;17.35;12.10;;;;;;;10.86;100.00;98917.69;4791399;29;20035;-85
2022/06/06 04:13:45;;;;;;;16.92;11.32;;;;;;;11.03;100.00;98912.06;4791769;29;20203;-86
2022/06/06 04:16:45;;;;;;;15.23;10.75;;;;;;;10.90;100.00;98910.25;4820911;29;20172;-86
2022/06/06 04:19:17;;;;;;;17.77;11.25;;;;;;;11.14;100.00;98918.53;4809168;29;20447;-87
2022/06/06 04:21:58;;;;;;;15.60;11.45;;;;;;;11.03;100.00;98924.41;4806187;29;20038;-85
2022/06/06 04:24:59;;;;;;;15.15;11.45;;;;;;;10.94;100.00;98923.78;4809186;29;20045;-84
2022/06/06 04:27:38;;;;;;;19.05;11.98;;;;;;;10.74;100.00;98929.81;4807615;29;20038;-85
2022/06/06 04:30:45;;;;;;;17.63;11.70;;;;;;;11.02;100.00;98930.69;4824112;29;20046;-84
2022/06/06 04:33:18;;;;;;;17.25;12.07;;;;;;;11.02;100.00;98928.84;4774230;29;20057;-87
2022/06/06 04:35:44;;;;;;;23.42;11.98;;;;;;;11.06;100.00;98929.25;4805177;29;20039;-86
2022/06/06 04:38:27;;;;;;;18.50;12.05;;;;;;;11.07;100.00;98939.56;4808848;29;20059;-87
2022/06/06 04:41:05;;;;;;;18.95;11.02;;;;;;;11.17;100.00;98933.13;4808466;29;20101;-85
2022/06/06 04:43:30;;;;;;;19.20;11.13;;;;;;;10.94;100.00;98935.09;4807525;29;20045;-85
2022/06/06 04:46:02;;;;;;;15.55;11.07;;;;;;;11.13;100.00;98935.31;4805700;29;20046;-85
2022/06/06 04:48:29;;;;;;;20.77;11.48;;;;;;;11.17;100.00;98935.75;4823134;29;20034;-84
2022/06/06 04:50:56;;;;;;;21.95;11.60;;;;;;;11.21;100.00;98932.50;4825196;29;20125;-86
2022/06/06 04:53:24;;;;;;;17.65;11.60;;;;;;;11.33;100.00;98939.78;4793394;29;20032;-85
2022/06/06 04:55:53;;;;;;;15.57;10.75;;;;;;;11.26;100.00;98934.53;4792776;29;20113;-85
2022/06/06 04:58:21;;;;;;;15.38;11.38;;;;;;;11.32;100.00;98931.09;4824974;29;20485;-85
2022/06/06 05:00:47;;;;;;;19.67;11.05;;;;;;;11.40;100.00;98945.88;4807723;29;20064;-88
2022/06/06 05:03:15;;;;;;;15.68;11.27;;;;;;;11.41;100.00;98939.59;4790998;29;20123;-90
2022/06/06 05:06:09;;;;;;;17.80;12.00;;;;;;;11.36;100.00;98942.00;4806832;29;20502;-87
2022/06/06 05:08:43;;;;;;;21.63;10.63;;;;;;;11.33;100.00;98943.22;4792237;29;20042;-88
2022/06/06 05:11:39;;;;;;;14.40;10.32;;;;;;;11.41;100.00;98931.72;4807661;29;20042;-87
2022/06/06 05:14:33;;;;;;;19.02;10.57;;;;;;;11.53;100.00;98927.44;4820905;29;20038;-87
2022/06/06 05:17:23;;;;;;;18.27;11.35;;;;;;;11.61;100.00;98923.00;4789710;29;20039;-88
2022/06/06 05:20:08;;;;;;;18.05;11.32;;;;;;;11.52;100.00;98925.81;4798967;29;20097;-87
2022/06/06 05:22:45;;;;;;;17.60;11.90;;;;;;;11.56;100.00;98916.53;4789768;29;20058;-87
2022/06/06 05:25:34;;;;;;;19.80;11.23;;;;;;;11.70;100.00;98924.41;4806907;29;20045;-86
2022/06/06 05:28:20;;;;;;;18.63;11.75;;;;;;;11.52;100.00;98923.19;4801837;29;20401;-89
2022/06/06 05:31:10;;;;;;;16.95;10.73;;;;;;;11.55;100.00;98916.75;4789833;29;20110;-88
2022/06/06 05:33:42;;;;;;;18.67;11.25;;;;;;;11.75;100.00;98927.22;4806414;29;20109;-86
2022/06/06 05:36:10;;;;;;;18.88;11.50;;;;;;;11.71;100.00;98931.28;4804282;29;20043;-88
2022/06/06 05:38:44;;;;;;;17.48;11.23;;;;;;;11.64;100.00;98923.38;4790966;29;20483;-87
2022/06/06 05:41:17;;;;;;;17.75;11.40;;;;;;;11.50;100.00;98922.59;4789610;29;20038;-86
2022/06/06 05:44:03;;;;;;;18.98;11.43;;;;;;;11.63;100.00;98924.41;4805232;29;20106;-87
2022/06/06 05:46:47;;;;;;;19.17;12.70;;;;;;;11.77;100.00;98930.44;4792824;29;20049;-88
2022/06/06 05:49:31;;;;;;;18.20;12.07;;;;;;;11.88;100.00;98933.47;4824481;29;20035;-88
2022/06/06 05:52:06;;;;;;;15.50;11.20;;;;;;;11.88;100.00;98934.25;4796898;29;20049;-87
2022/06/06 05:54:52;;;;;;;15.93;10.57;;;;;;;11.86;100.00;98931.84;4827908;29;20118;-87
2022/06/06 05:57:36;;;;;;;17.50;11.32;;;;;;;11.84;100.00;98938.31;4812318;29;20038;-86
2022/06/06 06:00:09;;;;;;;19.42;11.25;;;;;;;11.79;100.00;98917.94;4796508;29;20046;-88
2022/06/06 06:03:02;;;;;;;14.27;10.73;;;;;;;11.94;100.00;98922.13;4795141;29;20039;-85
2022/06/06 06:05:36;;;;;;;16.93;11.77;;;;;;;11.80;100.00;98924.81;4830669;29;20034;-87
2022/06/06 06:08:34;;;;;;;20.08;11.00;;;;;;;11.88;100.00;98918.50;4797384;29;20070;-89
2022/06/06 06:11:46;;;;;;;19.65;11.00;;;;;;;11.88;100.00;98929.00;4812656;29;20495;-90
2022/06/06 06:14:34;;;;;;;15.52;10.00;;;;;;;11.79;100.00;98917.94;4783006;29;20042;-88
2022/06/06 06:17:02;;;;;;;18.52;9.82;;;;;;;11.84;100.00;98936.53;4787314;29;20491;-90
2022/06/06 06:19:53;;;;;;;14.90;10.43;;;;;;;11.84;100.00;98936.53;4787425;29;20035;-89
2022/06/06 06:22:21;;;;;;;16.67;10.88;;;;;;;11.88;100.00;98933.47;4803401;29;20069;-88
2022/06/06 06:24:49;;;;;;;15.45;10.68;;;;;;;11.73;100.00;98937.13;4801461;29;20099;-88
2022/06/06 06:27:17;;;;;;;18.48;10.90;;;;;;;11.64;100.00;98936.53;4817464;29;20054;-88
2022/06/06 06:29:42;;;;;;;16.60;10.13;;;;;;;11.76;100.00;98941.97;4821056;29;20118;-88
2022/06/06 06:32:26;;;;;;;14.30;10.02;;;;;;;11.64;100.00;98944.41;4788764;29;20424;-88
2022/06/06 06:35:03;;;;;;;16.52;10.70;;;;;;;11.63;100.00;98947.28;4803032;29;20041;-87
2022/06/06 06:37:34;;;;;;;16.38;11.23;;;;;;;11.75;100.00;98957.97;4815057;29;20102;-89
2022/06/06 06:40:09;;;;;;;14.80;10.27;;;;;;;11.84;100.00;98949.66;4804494;29;20109;-88
2022/06/06 06:43:02;;;;;;;15.40;10.63;;;;;;;11.93;100.00;98955.53;4819016;29;20485;-87
2022/06/06 06:45:32;;;;;;;16.77;9.50;;;;;;;11.71;100.00;98960.19;4786295;29;20150;-86
2022/06/06 06:48:03;;;;;;;17.23;10.52;;;;;;;11.76;100.00;98952.50;4804645;29;20520;-87
2022/06/06 06:50:54;;;;;;;16.75;10.80;;;;;;;11.75;100.00;98960.59;4801161;29;20084;-88
2022/06/06 06:53:33;;;;;;;19.30;10.70;;;;;;;11.84;100.00;98960.19;4786136;29;20059;-87
2022/06/06 06:56:17;;;;;;;14.25;9.57;;;;;;;12.02;100.00;98961.41;4819313;29;20042;-87
2022/06/06 06:58:54;;;;;;;;;;;;;;;11.89;100.00;98956.94;4819224;29;20031;-88
2022/06/06 07:01:31;;;;;;;15.60;9.88;;;;;;;11.92;100.00;98966.25;4815201;29;19995;-86
2022/06/06 07:10:03;;;;;;;14.77;9.43;;;;;;;11.50;100.00;98977.78;4799865;29;20126;-87
2022/06/06 07:13:40;;;;;;;8.68;6.50;;;;;;;11.47;100.00;98983.47;4818564;29;22150;-88
2022/06/06 07:16:06;;;;;;;8.50;7.07;;;;;;;11.79;100.00;98981.03;4707847;30;20425;-87
2022/06/06 07:18:35;;;;;;;10.80;7.38;;;;;;;11.91;100.00;98983.03;4798672;29;20046;-87
2022/06/06 07:21:05;;;;;;;9.98;7.13;;;;;;;12.00;100.00;98977.34;4818376;29;21004;-88
2022/06/06 07:23:35;;;;;;;12.40;7.25;;;;;;;12.24;100.00;98976.94;4824909;29;20821;-88
2022/06/06 07:26:03;;;;;;;13.30;8.68;;;;;;;12.44;100.00;98963.69;4807829;29;20394;-88
2022/06/06 07:28:29;;;;;;;15.50;9.07;;;;;;;12.78;100.00;98974.91;4807077;29;20043;-86
2022/06/06 07:31:17;;;;;;;14.40;9.57;;;;;;;12.82;100.00;98976.09;4810239;29;20052;-89
2022/06/06 07:34:21;;;;;;;15.90;9.07;;;;;;;13.09;100.00;98967.22;4806998;29;20040;-88
2022/06/06 07:37:05;;;;;;;11.32;9.00;;;;;;;13.26;100.00;98983.31;4787938;29;20558;-88
2022/06/06 07:39:51;;;;;;;12.60;8.68;;;;;;;13.39;100.00;98979.81;4807142;29;20386;-88
2022/06/06 07:42:27;;;;;;;11.50;7.78;;;;;;;13.39;100.00;98977.16;4792869;29;20667;-89
2022/06/06 07:45:04;;;;;;;10.45;7.97;;;;;;;13.33;100.00;98970.09;4806271;29;20092;-88
2022/06/06 07:47:55;;;;;;;12.98;8.23;;;;;;;13.51;100.00;98972.81;4827787;29;20041;-89
2022/06/06 07:50:32;;;;;;;11.80;7.88;;;;;;;13.78;100.00;98971.81;4807019;29;20455;-88
2022/06/06 07:53:12;;;;;;;10.15;7.53;;;;;;;13.81;100.00;98966.09;4824420;29;20023;-87
2022/06/06 07:55:47;;;;;;;11.05;7.63;;;;;;;13.95;100.00;98966.75;4826032;29;20038;-88
2022/06/06 07:58:42;;;;;;;11.60;6.85;;;;;;;13.76;100.00;98968.56;4793946;29;20039;-89
2022/06/06 08:01:25;;;;;;;11.38;7.43;;;;;;;13.71;100.00;98972.69;4787930;29;20383;-89
2022/06/06 08:04:00;;;;;;;10.93;7.77;;;;;;;13.65;100.00;98972.72;4822961;29;20719;-87
2022/06/06 08:06:44;;;;;;;9.85;7.03;;;;;;;13.57;100.00;98973.81;4798745;29;20043;-84
2022/06/06 08:09:31;;;;;;;9.73;6.88;;;;;;;13.51;100.00;98972.81;4805295;29;20030;-84
2022/06/06 08:12:33;;;;;;;11.00;7.38;;;;;;;13.39;100.00;98972.69;4805445;29;20096;-83
2022/06/06 08:15:28;;;;;;;10.45;7.80;;;;;;;13.51;100.00;98974.69;4804035;29;20046;-84
2022/06/06 08:18:12;;;;;;;11.10;8.10;;;;;;;13.40;100.00;98981.41;4801501;29;20046;-83
2022/06/06 08:21:07;;;;;;;11.20;7.70;;;;;;;13.46;100.00;98975.31;4804124;29;20043;-82
2022/06/06 08:23:37;;;;;;;12.60;8.60;;;;;;;13.17;100.00;98977.53;4805420;29;20540;-83
2022/06/06 08:26:03;;;;;;;11.18;7.75;;;;;;;13.20;100.00;98973.63;4805522;29;20033;-85
2022/06/06 08:28:31;;;;;;;10.10;8.15;;;;;;;13.25;100.00;98969.34;4790707;29;20035;-84
2022/06/06 08:30:57;;;;;;;11.15;8.35;;;;;;;13.30;100.00;98966.06;4806257;29;20034;-84
2022/06/06 08:33:23;;;;;;;9.20;6.70;;;;;;;13.06;100.00;98959.75;4806216;29;20037;-83
2022/06/06 08:36:15;;;;;;;11.75;7.30;;;;;;;13.47;100.00;98961.09;4823284;29;20070;-84
2022/06/06 08:39:00;;;;;;;12.13;8.38;;;;;;;13.60;100.00;98957.53;4804387;29;20031;-82
2022/06/06 08:41:51;;;;;;;8.18;7.38;;;;;;;13.95;100.00;98957.03;4821998;29;20076;-84
2022/06/06 08:44:39;;;;;;;7.80;7.00;;;;;;;13.91;100.00;98955.84;4822255;29;20038;-84
2022/06/06 08:47:47;;;;;;;8.38;7.35;;;;;;;14.07;100.00;98949.19;4821591;29;20038;-83
2022/06/06 08:50:46;;;;;;;13.95;7.97;;;;;;;14.12;100.00;98949.31;4770738;29;20049;-83
2022/06/06 08:53:43;;;;;;;10.57;7.65;;;;;;;13.96;100.00;98950.72;4805219;29;20096;-84
2022/06/06 08:56:28;;;;;;;11.52;7.70;;;;;;;14.06;100.00;98952.06;4820531;29;20038;-84
2022/06/06 08:58:57;;;;;;;10.48;7.25;;;;;;;14.43;100.00;98959.94;4804766;29;20035;-85
2022/06/06 09:01:53;;;;;;;12.82;8.15;;;;;;;15.09;100.00;98954.84;4788957;29;20096;-84
2022/06/06 09:04:42;;;;;;;9.73;7.38;;;;;;;15.00;100.00;98961.47;4802971;29;20051;-84
2022/06/06 09:07:45;;;;;;;8.88;7.00;;;;;;;15.62;100.00;98962.16;4790170;29;20042;-84
2022/06/06 09:10:27;;;;;;;10.80;8.38;;;;;;;15.73;100.00;98964.03;4805486;29;20057;-83
2022/06/06 09:12:58;;;;;;;11.77;7.82;;;;;;;15.41;100.00;98966.97;4789566;29;20047;-83
2022/06/06 09:15:31;;;;;;;12.02;7.63;;;;;;;15.10;100.00;98960.94;4821470;29;20031;-84
2022/06/06 09:18:38;;;;;;;9.53;7.13;;;;;;;14.99;100.00;98965.97;4804908;29;20512;-84
2022/06/06 09:21:06;;;;;;;8.43;7.13;;;;;;;14.96;100.00;98966.41;4793168;29;20653;-84
2022/06/06 09:23:55;;;;;;;9.85;7.03;;;;;;;14.89;100.00;98964.91;4805295;29;20030;-84
2022/06/06 09:26:59;;;;;;;10.30;7.20;;;;;;;14.78;100.00;98963.81;4804429;29;20382;-84
2022/06/06 09:29:31;;;;;;;7.90;6.55;;;;;;;14.78;100.00;98963.81;4801109;29;20046;-84
2022/06/06 09:32:22;;;;;;;7.13;6.32;;;;;;;15.02;100.00;98974.47;4807803;29;20042;-84
2022/06/06 09:35:13;;;;;;;10.73;6.82;;;;;;;15.01;100.00;98968.38;4788546;29;20360;-84
2022/06/06 09:38:16;;;;;;;8.38;6.00;;;;;;;14.89;100.00;98973.63;4790381;29;20049;-84
2022/06/06 09:41:12;;;;;;;9.75;7.25;;;;;;;14.41;100.00;98976.03;4788113;29;20091;-84
2022/06/06 09:43:56;;;;;;;10.30;6.95;;;;;;;14.48;100.00;98975.94;4804319;29;20026;-83
2022/06/06 09:46:33;;;;;;;8.68;6.93;;;;;;;14.64;100.00;98971.88;4805910;29;20088;-83
2022/06/06 09:49:24;;;;;;;13.57;6.55;;;;;;;14.54;100.00;98974.22;4791512;29;20038;-84
2022/06/06 09:52:14;;;;;;;7.65;6.43;;;;;;;14.77;100.00;98972.78;4804373;29;20049;-85
2022/06/06 10:01:37;;;;;;;10.45;5.97;;;;;;;15.18;100.00;98973.84;4803358;29;20490;-84
2022/06/06 10:04:35;;;;;;;9.38;7.13;;;;;;;15.24;100.00;98977.41;4784380;29;20390;-83
2022/06/06 10:07:44;;;;;;;8.32;6.43;;;;;;;15.54;100.00;98976.53;4804560;29;20085;-84
2022/06/06 10:10:25;;;;;;;6.43;5.43;;;;;;;16.32;100.00;98971.13;4788871;29;20109;-85
2022/06/06 10:13:23;;;;;;;7.88;5.82;;;;;;;16.85;100.00;98965.75;4811575;29;20050;-84
2022/06/06 10:16:03;;;;;;;5.38;4.88;;;;;;;17.53;100.00;98968.50;4815311;29;20069;-85
2022/06/06 10:18:53;;;;;;;6.05;5.05;;;;;;;17.21;100.00;98970.91;4796323;29;20486;-84
2022/06/06 10:21:34;;;;;;;6.30;4.97;;;;;;;16.74;100.00;98979.88;4782542;29;20066;-85
2022/06/06 10:24:12;;;;;;;7.82;4.97;;;;;;;16.91;100.00;98978.06;4794751;29;20050;-83
2022/06/06 10:26:46;;;;;;;6.53;5.13;;;;;;;16.70;100.00;98979.53;4816044;29;20088;-83
2022/06/06 10:30:10;;;;;;;;;;;;;;;16.25;100.00;98970.44;4810357;29;20061;-83
2022/06/06 10:32:40;;;;;;;6.60;5.10;;;;;;;16.19;100.00;98971.38;4809096;29;19970;-85
2022/06/06 10:35:31;;;;;;;7.47;5.55;;;;;;;15.55;100.00;98983.44;4812065;29;20406;-84
2022/06/06 10:38:13;;;;;;;6.75;5.60;;;;;;;15.46;100.00;98982.97;4814001;29;20046;-84
2022/06/06 10:41:00;;;;;;;8.27;6.15;;;;;;;15.49;100.00;98982.50;4800590;29;20043;-85
2022/06/06 10:43:46;;;;;;;6.78;4.50;;;;;;;15.67;100.00;98980.78;4814751;29;20083;-85
2022/06/06 10:46:24;;;;;;;5.50;4.32;;;;;;;15.99;100.00;98983.13;4799387;29;20053;-84
2022/06/06 10:49:08;;;;;;;6.90;5.05;;;;;;;16.62;100.00;98980.69;4810850;29;20035;-84
2022/06/06 10:51:52;;;;;;;;;;;;;;;16.63;100.00;98982.31;4797229;29;20043;-85
2022/06/06 10:54:17;;;;;;;7.15;5.18;;;;;;;16.46;100.00;98976.97;4815298;29;20365;-85
2022/06/06 10:57:01;;;;;;;6.63;5.18;;;;;;;16.49;100.00;98980.97;4800072;29;20100;-84
2022/06/06 10:59:52;;;;;;;5.97;5.38;;;;;;;16.31;100.00;98980.09;4812594;29;20502;-85
2022/06/06 11:02:26;;;;;;;8.63;6.03;;;;;;;16.20;100.00;98980.91;4799127;29;20046;-85
2022/06/06 11:04:58;;;;;;;7.18;6.45;;;;;;;16.30;100.00;98980.34;4783809;29;20035;-84
2022/06/06 11:07:38;;;;;;;8.80;6.18;;;;;;;16.24;100.00;98979.41;4780632;29;20046;-84
2022/06/06 11:10:09;;;;;;;8.60;6.47;;;;;;;16.17;100.00;98982.19;4798221;29;20055;-85
2022/06/06 11:12:40;;;;;;;8.70;5.70;;;;;;;16.18;100.00;98975.06;4798533;29;20205;-85
2022/06/06 11:15:06;;;;;;;7.20;5.35;;;;;;;16.17;100.00;98976.09;4797779;29;20064;-84
2022/06/06 11:17:51;;;;;;;6.07;5.40;;;;;;;16.00;100.00;98982.09;4798471;29;20426;-86
2022/06/06 11:20:35;;;;;;;9.07;6.60;;;;;;;15.98;100.00;98984.16;4798915;29;20041;-86
2022/06/06 11:23:11;;;;;;;10.07;6.40;;;;;;;16.02;100.00;98987.16;4811705;29;20035;-85
2022/06/06 11:26:13;;;;;;;10.93;6.78;;;;;;;15.62;100.00;98988.63;4797359;29;20034;-86
2022/06/06 11:28:42;;;;;;;8.60;6.55;;;;;;;15.69;100.00;98991.94;4781521;29;20486;-84
2022/06/06 11:31:36;;;;;;;8.93;6.22;;;;;;;15.54;100.00;98998.50;4815754;29;20420;-85
2022/06/06 11:38:19;;;;;;;8.30;6.65;;;;;;;15.16;100.00;98991.78;4790417;29;20351;-84
2022/06/06 11:41:12;;;;;;;9.43;7.43;;;;;;;14.85;100.00;98989.13;4799400;29;20129;-84
2022/06/06 11:43:59;;;;;;;9.77;7.18;;;;;;;14.90;100.00;98996.38;4800438;29;20038;-86
2022/06/06 11:46:47;;;;;;;9.38;6.75;;;;;;;14.78;100.00;98993.69;4784825;29;20039;-84
2022/06/06 11:49:28;;;;;;;12.07;7.80;;;;;;;14.76;100.00;99002.88;4800686;29;20486;-84
2022/06/06 11:52:15;;;;;;;10.63;7.47;;;;;;;14.81;100.00;99000.38;4800002;29;20042;-84
2022/06/06 11:55:13;;;;;;;12.07;7.40;;;;;;;14.79;100.00;98997.16;4812756;29;20097;-89
2022/06/06 11:57:58;;;;;;;12.48;7.60;;;;;;;14.68;100.00;98988.91;4783231;29;20043;-91
2022/06/06 12:00:57;;;;;;;8.68;6.97;;;;;;;14.68;100.00;98996.81;4814912;29;20031;-86
2022/06/06 12:03:42;;;;;;;8.30;7.30;;;;;;;14.88;100.00;98990.50;4795267;29;20074;-88
2022/06/06 12:06:38;;;;;;;10.10;8.13;;;;;;;14.95;100.00;98993.88;4797958;29;20039;-87
2022/06/06 12:09:30;;;;;;;8.52;7.40;;;;;;;15.05;100.00;98974.84;4790136;29;20042;-89
2022/06/06 12:12:05;;;;;;;10.35;8.00;;;;;;;15.36;100.00;98986.16;4802063;29;20109;-84
2022/06/06 12:14:57;;;;;;;13.65;8.52;;;;;;;15.40;100.00;98994.47;4805548;29;20492;-83
2022/06/06 12:17:33;;;;;;;9.77;7.78;;;;;;;15.50;100.00;98997.34;4787922;29;20053;-85
2022/06/06 12:20:34;;;;;;;12.43;8.75;;;;;;;15.56;100.00;98993.81;4822712;29;20038;-88
2022/06/06 12:23:11;;;;;;;11.00;7.70;;;;;;;16.11;100.00;98991.88;4779901;29;20043;-86
2022/06/06 12:26:16;;;;;;;27.95;10.07;;;;;;;16.36;100.00;98993.44;4809215;29;20174;-88
2022/06/06 12:29:01;;;;;;;12.35;8.35;;;;;;;16.65;100.00;98996.13;4781442;29;20081;-89
2022/06/06 12:31:49;;;;;;;10.88;8.52;;;;;;;16.54;100.00;99000.41;4793531;29;20103;-89
2022/06/06 12:34:40;;;;;;;11.15;8.48;;;;;;;16.36;100.00;98972.25;4814139;29;20030;-89
2022/06/06 12:37:34;;;;;;;;;;;;;;;;;;;;;
2022/06/06 12:41:11;;;;;;;9.60;7.05;;;;;;;18.50;100.00;98979.91;4814551;29;20039;-90
2022/06/06 12:44:02;;;;;;;11.15;8.55;;;;;;;19.30;100.00;98975.94;4812267;29;20047;-89
2022/06/06 12:46:44;;;;;;;8.68;7.78;;;;;;;19.89;98.38;98956.34;4796129;29;20051;-89
2022/06/06 12:50:24;;;;;;;11.20;7.65;;;;;;;20.74;97.94;98970.56;4812529;29;20038;-88
2022/06/06 12:53:28;;;;;;;14.77;8.43;;;;;;;20.14;96.77;98973.53;4759711;30;20123;-86
2022/06/06 12:56:32;;;;;;;8.68;7.75;;;;;;;20.15;94.81;98956.53;4756899;30;20056;-87
2022/06/06 12:59:21;;;;;;;9.93;8.18;;;;;;;20.10;98.82;98975.13;4825253;29;20046;-87
2022/06/06 13:02:17;;;;;;;9.23;8.38;;;;;;;19.92;98.78;98976.38;4807680;29;20041;-89